Time;durP1;ratioP1;P1;durP2;ratioP2;P2;SDS_P1;SDS_P2;PMS_P1;PMS_P2;Temp;Humidity;BMP_temperature;BMP_pressure;BME280_temperature;BME280_humidity;BME280_pressure;Samples;Min_cycle;Max_cycle;Signal;HPM_P1;HPM_P2
2022/01/18 00:01:35;;;;;;;;;;;4.70;99.90;;;4.53;100.00;102524.88;4946743;29;20037;-75
2022/01/18 00:04:03;;;;;;;;;;;5.10;99.90;;;4.52;100.00;102510.94;4929609;29;19934;-75
2022/01/18 00:06:29;;;;;;;;;;;5.00;99.90;;;4.59;100.00;102509.44;4947782;28;19931;-75
2022/01/18 00:08:56;;;;;;;;;;;5.10;99.90;;;4.59;100.00;102514.63;4946048;29;20422;-75
2022/01/18 00:11:29;;;;;;;;;;;7.00;99.90;;;4.57;100.00;102521.53;4944969;29;19937;-75
2022/01/18 00:14:03;;;;;;;;;;;5.00;99.90;;;4.54;100.00;102519.69;4944598;28;19928;-76
2022/01/18 00:16:37;;;;;;;;;;;5.10;99.90;;;4.56;100.00;102516.25;4947461;28;19937;-76
2022/01/18 00:19:10;;;;;;;;;;;5.20;99.90;;;4.48;100.00;102524.69;4946245;29;20635;-75
2022/01/18 00:22:20;;;;;;;;;;;6.40;99.90;;;4.47;100.00;102512.50;4946372;29;19926;-75
2022/01/18 00:24:27;;;;;;;;;;;5.00;99.90;;;4.50;100.00;102512.59;4952198;28;19934;-73
2022/01/18 00:26:54;;;;;;;;;;;6.00;99.90;;;4.51;100.00;102511.75;4947306;28;19972;-74
2022/01/18 00:29:24;;;;;;;;;;;5.70;99.90;;;4.51;100.00;102532.63;4948268;28;19949;-75
2022/01/18 00:32:36;;;;;;;;;;;5.40;99.90;;;4.51;100.00;102544.75;4945925;28;20031;-75
2022/01/18 00:34:47;;;;;;;;;;;7.30;99.90;;;4.51;100.00;102550.88;4948033;28;19930;-76
2022/01/18 00:37:26;;;;;;;;;;;5.70;99.90;;;4.54;100.00;102548.38;4945928;29;19931;-76
2022/01/18 00:39:54;;;;;;;;;;;5.70;99.90;;;4.54;100.00;102548.38;4946041;29;20362;-73
2022/01/18 00:42:21;;;;;;;;;;;6.00;99.90;;;4.53;100.00;102543.97;4945956;28;19937;-74
2022/01/18 00:44:48;;;;;;;;;;;4.90;99.90;;;4.58;100.00;102541.56;4945136;29;19927;-76
2022/01/18 00:47:15;;;;;;;;;;;5.90;99.90;;;4.57;100.00;102554.53;4946254;29;19996;-73
2022/01/18 00:49:45;;;;;;;;;;;6.90;99.90;;;4.51;100.00;102561.31;4945701;29;19949;-76
2022/01/18 00:52:17;;;;;;;;;;;4.90;99.90;;;4.52;100.00;102552.66;4945709;29;19930;-76
2022/01/18 00:54:46;;;;;;;;;;;6.90;99.90;;;4.56;100.00;102553.66;4946169;28;19938;-75
2022/01/18 00:57:13;;;;;;;;;;;5.00;99.90;;;4.57;100.00;102557.13;4945709;29;20327;-76
2022/01/18 00:59:41;;;;;;;;;;;6.30;99.90;;;4.60;100.00;102552.00;4945942;29;19953;-75
2022/01/18 01:02:18;;;;;;;;;;;6.60;99.90;;;4.59;100.00;102563.28;4946729;28;19980;-73
2022/01/18 01:04:49;;;;;;;;;;;5.10;99.90;;;4.53;100.00;102554.41;4945494;29;19930;-75
2022/01/18 01:07:19;;;;;;;;;;;7.50;99.90;;;4.52;100.00;102554.34;4945727;29;19937;-76
2022/01/18 01:09:47;;;;;;;;;;;5.70;99.90;;;4.58;100.00;102558.91;4929986;29;20025;-75
2022/01/18 01:12:16;;;;;;;;;;;5.10;99.90;;;4.58;100.00;102557.19;4946821;28;19980;-78
2022/01/18 01:14:45;;;;;;;;;;;5.00;99.90;;;4.61;100.00;102559.03;4945295;29;19931;-75
2022/01/18 01:42:28;;;;;;;;;;;5.50;99.90;;;4.50;100.00;102556.91;4960858;28;19945;-73
2022/01/18 01:44:56;;;;;;;;;;;5.00;99.90;;;4.48;100.00;102555.06;4945797;28;20481;-76
2022/01/18 01:47:33;;;;;;;;;;;4.90;99.90;;;4.51;100.00;102560.41;4960748;28;20382;-76
2022/01/18 01:50:03;;;;;;;;;;;5.50;99.90;;;4.51;100.00;102566.50;4946757;28;19938;-75
2022/01/18 01:52:30;;;;;;;;;;;5.00;99.90;;;4.48;100.00;102563.81;4945796;29;20013;-76
2022/01/18 01:54:57;;;;;;;;;;;5.00;99.90;;;4.50;100.00;102564.75;4948050;29;19990;-76
2022/01/18 01:57:24;;;;;;;;;;;5.10;99.90;;;4.47;100.00;102559.41;4949465;28;20657;-76
2022/01/18 01:59:51;;;;;;;;;;;4.90;99.90;;;4.51;100.00;102569.13;4932143;28;19934;-75
2022/01/18 02:02:18;;;;;;;;;;;5.00;99.90;;;4.52;100.00;102565.69;4949090;28;20403;-76
2022/01/18 02:04:46;;;;;;;;;;;5.10;99.90;;;4.52;100.00;102570.91;4947332;29;20300;-76
2022/01/18 02:07:13;;;;;;;;;;;4.80;99.90;;;4.52;100.00;102560.47;4948319;28;19931;-76
2022/01/18 02:09:40;;;;;;;;;;;4.80;99.90;;;4.56;100.00;102563.19;4948177;29;20398;-74
2022/01/18 02:12:08;;;;;;;;;;;4.90;99.90;;;4.54;100.00;102574.44;4947995;28;19930;-76
2022/01/18 02:14:35;;;;;;;;;;;5.00;99.90;;;4.58;100.00;102564.13;4931134;29;19938;-76
2022/01/18 02:22:33;;;;;;;;;;;6.70;99.90;;;4.62;100.00;102563.41;4947623;29;19935;-76
2022/01/18 02:25:00;;;;;;;;;;;4.50;99.90;;;4.63;100.00;102560.84;4947349;29;19957;-74
2022/01/18 02:27:28;;;;;;;;;;;5.20;99.90;;;4.66;100.00;102560.06;4947853;29;19927;-75
2022/01/18 02:29:55;;;;;;;;;;;5.00;99.90;;;4.67;100.00;102556.63;4948024;29;19934;-75
2022/01/18 02:32:22;;;;;;;;;;;6.00;99.90;;;4.69;100.00;102568.00;4947163;29;19933;-74
2022/01/18 02:34:49;;;;;;;;;;;7.30;99.90;;;4.67;100.00;102564.47;4947174;29;20303;-76
2022/01/18 02:37:16;;;;;;;;;;;7.30;99.90;;;4.64;100.00;102560.00;4947571;28;19930;-75
2022/01/18 02:39:43;;;;;;;;;;;5.90;99.90;;;4.70;100.00;102566.31;4949986;28;19930;-75
2022/01/18 02:42:11;;;;;;;;;;;5.10;99.90;;;4.65;100.00;102564.38;4948726;28;19937;-75
2022/01/18 02:44:38;;;;;;;;;;;5.10;99.90;;;4.66;100.00;102557.47;4946077;29;19927;-75
2022/01/18 02:47:05;;;;;;;;;;;5.30;99.90;;;4.68;100.00;102554.09;4947751;29;20573;-74
2022/01/18 02:49:33;;;;;;;;;;;5.10;99.90;;;4.70;100.00;102554.13;4947243;28;19926;-76
2022/01/18 02:52:01;;;;;;;;;;;5.20;99.90;;;4.69;100.00;102544.53;4947670;29;19938;-76
2022/01/18 02:54:28;;;;;;;;;;;5.60;99.90;;;4.68;100.00;102554.09;4946233;29;19934;-75
2022/01/18 02:57:00;;;;;;;;;;;4.90;99.90;;;4.69;100.00;102552.34;4947476;29;19973;-75
2022/01/18 02:59:48;;;;;;;;;;;6.20;99.90;;;4.66;100.00;102550.50;4948711;28;19934;-76
2022/01/18 03:05:10;;;;;;;;;;;5.10;99.90;;;4.71;100.00;102558.50;4933353;29;19972;-75
2022/01/18 03:07:37;;;;;;;;;;;5.30;99.90;;;4.72;100.00;102565.50;4931703;29;19930;-75
2022/01/18 03:10:05;;;;;;;;;;;6.00;99.90;;;4.74;100.00;102568.19;4947000;29;19931;-75
2022/01/18 03:12:32;;;;;;;;;;;5.10;99.90;;;4.71;100.00;102563.72;4946167;28;20334;-74
2022/01/18 03:14:59;;;;;;;;;;;5.20;99.90;;;4.76;100.00;102563.91;4946477;29;19938;-75
2022/01/18 03:17:26;;;;;;;;;;;6.00;99.90;;;4.68;100.00;102548.88;4946725;29;19930;-76
2022/01/18 03:19:53;;;;;;;;;;;5.20;99.90;;;4.74;100.00;102548.19;4947064;29;19931;-75
2022/01/18 03:22:20;;;;;;;;;;;5.40;99.90;;;4.68;100.00;102554.09;4946323;29;20366;-75
2022/01/18 03:30:05;;;;;;;;;;;5.30;99.90;;;4.68;100.00;102564.53;4948410;28;19930;-74
2022/01/18 03:32:33;;;;;;;;;;;5.20;99.90;;;4.70;100.00;102564.56;4946206;29;19965;-75
2022/01/18 03:35:00;;;;;;;;;;;5.30;99.90;;;4.63;100.00;102553.03;4945772;29;19938;-76
2022/01/18 03:37:27;;;;;;;;;;;5.30;99.90;;;4.65;100.00;102556.56;4946018;29;19926;-74
2022/01/18 03:39:58;;;;;;;;;;;5.20;99.90;;;4.66;100.00;102555.72;4961430;28;19926;-76
2022/01/18 03:45:03;;;;;;;;;;;5.90;99.90;;;4.70;100.00;102545.44;4947634;29;20496;-74
2022/01/18 03:47:32;;;;;;;;;;;6.70;99.90;;;4.70;100.00;102550.66;4962328;28;20342;-76
2022/01/18 03:49:59;;;;;;;;;;;5.30;99.90;;;4.73;100.00;102551.63;4947802;28;19931;-74
2022/01/18 03:52:26;;;;;;;;;;;5.10;99.90;;;4.69;100.00;102552.34;4945980;29;19965;-76
2022/01/18 03:54:54;;;;;;;;;;;5.10;99.90;;;4.72;100.00;102556.81;4961639;28;19979;-74
2022/01/18 03:57:21;;;;;;;;;;;5.20;99.90;;;4.69;100.00;102554.97;4947957;28;19932;-76
2022/01/18 03:59:48;;;;;;;;;;;5.20;99.90;;;4.67;100.00;102546.22;4946447;29;19932;-76
2022/01/18 04:02:16;;;;;;;;;;;5.20;99.90;;;4.68;100.00;102554.09;4930341;29;20684;-75
2022/01/18 04:04:43;;;;;;;;;;;5.10;99.90;;;4.72;100.00;102565.50;4946183;29;20358;-76
2022/01/18 04:07:10;;;;;;;;;;;5.30;99.90;;;4.75;100.00;102575.16;4930853;29;20486;-76
2022/01/18 04:09:38;;;;;;;;;;;5.20;99.90;;;4.74;100.00;102576.88;4946456;28;19927;-76
2022/01/18 04:12:07;;;;;;;;;;;6.90;99.90;;;4.75;100.00;102581.25;4947800;28;19962;-76
2022/01/18 04:14:33;;;;;;;;;;;5.10;99.90;;;4.76;100.00;102584.75;4946549;28;19945;-76
2022/01/18 04:27:34;;;;;;;;;;;5.10;99.90;;;4.69;100.00;102588.88;4947432;29;19930;-76
2022/01/18 04:30:01;;;;;;;;;;;5.30;99.90;;;4.72;100.00;102586.38;4947257;28;19930;-75
2022/01/18 04:32:27;;;;;;;;;;;5.80;99.90;;;4.73;100.00;102580.31;4945461;29;19934;-75
2022/01/18 04:34:54;;;;;;;;;;;5.30;99.90;;;4.72;100.00;102575.06;4945312;29;19935;-74
2022/01/18 04:37:21;;;;;;;;;;;5.20;99.90;;;4.73;100.00;102576.84;4946093;29;19972;-75
2022/01/18 04:39:49;;;;;;;;;;;5.20;99.90;;;4.75;100.00;102589.06;4945904;29;20601;-74
2022/01/18 04:42:31;;;;;;;;;;;6.20;99.90;;;4.73;100.00;102587.25;4945051;29;19930;-75
2022/01/18 04:50:29;;;;;;;;;;;6.60;99.90;;;4.73;100.00;102595.09;4927833;29;20708;-75
2022/01/18 04:52:56;;;;;;;;;;;6.50;99.90;;;4.72;100.00;102596.78;4926197;29;19927;-74
2022/01/18 04:55:30;;;;;;;;;;;6.00;99.90;;;4.74;100.00;102592.53;4927458;29;19938;-74
2022/01/18 04:57:57;;;;;;;;;;;5.10;99.90;;;4.68;100.00;102589.69;4926560;28;19931;-75
2022/01/18 05:00:26;;;;;;;;;;;5.10;99.90;;;4.73;100.00;102592.47;4925538;29;19931;-75
2022/01/18 05:02:54;;;;;;;;;;;7.10;99.90;;;4.73;100.00;102595.09;4908642;29;20485;-75
2022/01/18 05:05:31;;;;;;;;;;;5.10;99.90;;;4.76;100.00;102600.41;4926660;29;20404;-75
2022/01/18 05:08:00;;;;;;;;;;;5.10;99.90;;;4.73;100.00;102598.56;4928063;29;19927;-75
2022/01/18 05:10:29;;;;;;;;;;;6.00;99.90;;;4.76;100.00;102609.13;4928149;29;20439;-73
2022/01/18 05:12:57;;;;;;;;;;;7.00;99.90;;;4.76;100.00;102611.75;4919299;28;19934;-75
2022/01/18 05:23:01;;;;;;;;;;;5.40;99.90;;;4.73;100.00;102601.19;4941958;28;19930;-77
2022/01/18 05:25:29;;;;;;;;;;;5.10;99.90;;;4.68;100.00;102603.66;4944415;29;19984;-77
2022/01/18 05:27:57;;;;;;;;;;;5.10;99.90;;;4.70;100.00;102597.59;4927628;29;19978;-76
2022/01/18 05:30:30;;;;;;;;;;;5.20;99.90;;;4.66;100.00;102596.59;4933373;28;19937;-75
2022/01/18 05:32:57;;;;;;;;;;;5.90;99.90;;;4.61;100.00;102598.16;4942115;29;19945;-77
2022/01/18 05:35:25;;;;;;;;;;;6.00;99.90;;;4.64;100.00;102595.66;4925281;29;19931;-75
2022/01/18 05:37:52;;;;;;;;;;;6.50;99.90;;;4.65;100.00;102605.25;4944566;29;20434;-75
2022/01/18 05:40:19;;;;;;;;;;;5.00;99.90;;;4.64;100.00;102598.25;4944771;28;19935;-75
2022/01/18 05:42:47;;;;;;;;;;;6.30;99.90;;;4.62;100.00;102598.19;4945587;28;19937;-76
2022/01/18 05:45:14;;;;;;;;;;;5.10;99.90;;;4.62;100.00;102603.41;4945486;28;19930;-76
2022/01/18 05:47:41;;;;;;;;;;;5.10;99.90;;;4.60;100.00;102598.94;4946191;29;19938;-75
2022/01/18 05:50:10;;;;;;;;;;;6.60;99.90;;;4.64;100.00;102606.94;4946076;28;19938;-76
2022/01/18 05:52:37;;;;;;;;;;;5.10;99.90;;;4.64;100.00;102611.28;4945811;28;20001;-77
2022/01/18 05:55:06;;;;;;;;;;;5.00;99.90;;;4.57;100.00;102610.19;4944510;29;19931;-77
2022/01/18 05:57:33;;;;;;;;;;;5.00;99.90;;;4.61;100.00;102613.78;4961002;28;20426;-77
2022/01/18 06:00:05;;;;;;;;;;;5.10;99.90;;;4.62;100.00;102612.97;4959457;28;20304;-78
2022/01/18 06:02:47;;;;;;;;;;;5.30;99.90;;;4.62;100.00;102615.56;4947858;28;20453;-77
2022/01/18 06:08:00;;;;;;;;;;;5.00;99.90;;;4.62;100.00;102618.19;4931147;29;19930;-77
2022/01/18 06:10:27;;;;;;;;;;;5.00;99.90;;;4.61;100.00;102619.00;4946214;28;19933;-76
2022/01/18 06:12:54;;;;;;;;;;;6.60;99.90;;;4.52;100.00;102623.03;4943862;28;20417;-77
2022/01/18 06:15:21;;;;;;;;;;;5.00;99.90;;;4.53;100.00;102616.13;4943714;28;20284;-77
2022/01/18 06:17:48;;;;;;;;;;;5.00;99.90;;;4.57;100.00;102620.59;4945110;29;19927;-77
2022/01/18 06:20:15;;;;;;;;;;;5.00;99.90;;;4.54;100.00;102621.38;4946336;28;19938;-76
2022/01/18 06:22:42;;;;;;;;;;;5.00;99.90;;;4.48;100.00;102618.53;4946213;29;19934;-77
2022/01/18 06:25:09;;;;;;;;;;;5.00;99.90;;;4.44;100.00;102621.84;4945275;29;19927;-78
2022/01/18 06:27:36;;;;;;;;;;;6.60;99.90;;;4.43;100.00;102617.47;4944845;29;19930;-77
2022/01/18 06:30:09;;;;;;;;;;;4.80;99.90;;;4.40;100.00;102619.97;4944668;28;19938;-77
2022/01/18 06:32:43;;;;;;;;;;;4.90;99.90;;;4.40;100.00;102635.59;4944915;29;19930;-78
2022/01/18 06:35:11;;;;;;;;;;;4.80;99.90;;;4.44;100.00;102632.28;4944827;29;19990;-77
2022/01/18 06:37:38;;;;;;;;;;;4.80;99.90;;;4.41;100.00;102632.16;4929091;29;19926;-77
2022/01/18 06:40:08;;;;;;;;;;;4.90;99.90;;;4.38;100.00;102632.06;4930898;29;19937;-77
2022/01/18 06:42:35;;;;;;;;;;;4.90;99.90;;;4.33;100.00;102628.41;4947454;29;19937;-78
2022/01/18 06:45:02;;;;;;;;;;;4.80;99.90;;;4.39;100.00;102639.94;4947739;29;19930;-77
2022/01/18 06:47:29;;;;;;;;;;;4.80;99.90;;;4.39;100.00;102649.47;4948020;29;19934;-77
2022/01/18 06:49:56;;;;;;;;;;;6.30;99.90;;;4.38;100.00;102648.59;4932361;29;19931;-77
2022/01/18 06:52:23;;;;;;;;;;;5.40;99.90;;;4.40;100.00;102653.84;4947661;29;19933;-77
2022/01/18 06:54:50;;;;;;;;;;;5.30;99.90;;;4.37;100.00;102657.25;4947699;29;19945;-78
2022/01/18 06:57:17;;;;;;;;;;;4.80;99.90;;;4.39;100.00;102659.91;4948512;29;19933;-77
2022/01/18 06:59:44;;;;;;;;;;;5.20;99.90;;;4.37;100.00;102653.75;4947554;28;19930;-76
2022/01/18 07:02:12;;;;;;;;;;;5.00;99.90;;;4.38;100.00;102650.28;4947934;29;19969;-77
2022/01/18 07:04:39;;;;;;;;;;;4.80;99.90;;;4.34;100.00;102653.63;4916311;29;19934;-76
2022/01/18 07:07:06;;;;;;;;;;;4.80;99.90;;;4.37;100.00;102659.84;4948910;28;19930;-77
2022/01/18 07:09:34;;;;;;;;;;;4.80;99.90;;;4.37;100.00;102665.06;4947525;28;19934;-76
2022/01/18 07:12:08;;;;;;;;;;;4.80;99.90;;;4.32;100.00;102666.59;4947103;28;20026;-76
2022/01/18 07:14:35;;;;;;;;;;;4.70;99.90;;;4.32;100.00;102668.31;4932844;29;20406;-76
2022/01/18 07:17:02;;;;;;;;;;;4.80;99.90;;;4.30;100.00;102669.97;4948228;28;19934;-75
2022/01/18 07:19:34;;;;;;;;;;;4.80;99.90;;;4.23;100.00;102677.53;4947067;28;19937;-75
2022/01/18 07:22:02;;;;;;;;;;;4.80;99.90;;;4.28;100.00;102679.44;4946895;29;20017;-76
2022/01/18 07:24:42;;;;;;;;;;;4.60;99.90;;;4.27;100.00;102694.19;4946826;29;19937;-77
2022/01/18 07:27:10;;;;;;;;;;;5.20;99.90;;;4.25;100.00;102685.44;4947572;29;19950;-76
2022/01/18 07:29:38;;;;;;;;;;;5.50;99.90;;;4.30;100.00;102683.88;4947038;28;19930;-75
2022/01/18 07:32:06;;;;;;;;;;;4.70;99.90;;;4.31;100.00;102690.00;4947173;29;19938;-76
2022/01/18 07:34:34;;;;;;;;;;;4.70;99.90;;;4.31;100.00;102693.47;4931103;29;19930;-75
2022/01/18 07:37:02;;;;;;;;;;;5.50;99.90;;;4.34;100.00;102693.59;4945457;29;19949;-76
2022/01/18 07:39:29;;;;;;;;;;;4.80;99.90;;;4.37;100.00;102700.66;4931108;29;20508;-76
2022/01/18 07:41:56;;;;;;;;;;;4.80;99.90;;;4.37;100.00;102698.06;4931386;29;20007;-76
2022/01/18 07:44:23;;;;;;;;;;;4.80;99.90;;;4.38;100.00;102705.94;4946401;29;19934;-75
2022/01/18 07:46:50;;;;;;;;;;;4.80;99.90;;;4.36;100.00;102696.28;4931380;29;20307;-76
2022/01/18 07:49:20;;;;;;;;;;;4.80;99.90;;;4.38;100.00;102700.72;4948220;28;19927;-75
2022/01/18 07:52:04;;;;;;;;;;;4.80;99.90;;;4.40;100.00;102693.84;4933463;29;19937;-76
2022/01/18 07:54:31;;;;;;;;;;;4.90;99.90;;;4.40;100.00;102691.25;4947639;28;19926;-75
2022/01/18 07:57:02;;;;;;;;;;;4.90;99.90;;;4.44;100.00;102700.06;4930952;29;20459;-75
2022/01/18 07:59:28;;;;;;;;;;;4.90;99.90;;;4.47;100.00;102699.28;4946600;28;19931;-75
2022/01/18 08:01:56;;;;;;;;;;;7.60;99.90;;;4.46;100.00;102703.63;4947183;29;20598;-75
2022/01/18 08:04:23;;;;;;;;;;;4.70;99.90;;;4.48;100.00;102704.59;4945605;29;19926;-76
2022/01/18 08:06:50;;;;;;;;;;;4.90;99.90;;;4.48;100.00;102709.78;4946029;29;19931;-76
2022/01/18 08:09:19;;;;;;;;;;;5.10;99.90;;;4.49;100.00;102711.56;4946593;28;19949;-76
2022/01/18 08:11:46;;;;;;;;;;;4.90;99.90;;;4.55;100.00;102710.91;4964327;28;19926;-76
2022/01/18 08:14:16;;;;;;;;;;;5.50;99.90;;;4.58;100.00;102712.75;4966290;28;19973;-77
2022/01/18 08:16:59;;;;;;;;;;;6.40;99.90;;;4.58;100.00;102715.34;4969801;28;20153;-77
2022/01/18 08:19:28;;;;;;;;;;;5.00;99.90;;;4.60;100.00;102705.84;4963930;28;19923;-76
2022/01/18 08:21:56;;;;;;;;;;;5.10;99.90;;;4.61;100.00;102712.88;4937554;29;19931;-77
2022/01/18 08:24:27;;;;;;;;;;;5.10;99.90;;;4.67;100.00;102719.19;4912638;29;19962;-77
2022/01/18 08:26:54;;;;;;;;;;;5.00;99.90;;;4.67;100.00;102716.59;4928284;29;19941;-77
2022/01/18 08:29:24;;;;;;;;;;;6.50;99.90;;;4.72;100.00;102721.97;4928167;29;19972;-77
2022/01/18 08:32:11;;;;;;;;;;;5.20;99.90;;;4.73;100.00;102717.66;4928302;29;19927;-77
2022/01/18 08:34:41;;;;;;;;;;;5.20;99.90;;;4.72;100.00;102713.28;4928686;29;20422;-77
2022/01/18 08:37:08;;;;;;;;;;;5.10;99.90;;;4.76;100.00;102713.47;4932222;29;19933;-77
2022/01/18 08:39:35;;;;;;;;;;;6.50;99.90;;;4.76;100.00;102721.28;4947061;28;20491;-78
2022/01/18 08:42:02;;;;;;;;;;;5.20;99.90;;;4.79;100.00;102721.41;4946845;29;19934;-77
2022/01/18 08:44:30;;;;;;;;;;;5.30;99.90;;;4.86;100.00;102727.75;4946421;29;20013;-77
2022/01/18 08:46:57;;;;;;;;;;;7.40;99.90;;;4.85;100.00;102714.63;4930483;29;19926;-77
2022/01/18 08:49:24;;;;;;;;;;;6.00;99.90;;;4.85;100.00;102717.25;4933385;28;20000;-76
2022/01/18 08:51:51;;;;;;;;;;;5.30;99.90;;;4.93;100.00;102726.25;4947917;28;19996;-77
2022/01/18 08:54:18;;;;;;;;;;;5.30;99.90;;;4.90;100.00;102727.00;4946242;29;19930;-78
2022/01/18 08:56:45;;;;;;;;;;;5.70;99.90;;;4.97;100.00;102721.19;4945456;29;20685;-77
2022/01/18 08:59:21;;;;;;;;;;;6.70;99.90;;;5.05;100.00;102715.38;4945613;29;19930;-77
2022/01/18 09:01:50;;;;;;;;;;;5.90;99.90;;;5.04;100.00;102716.22;4929819;29;20026;-78
2022/01/18 09:04:19;;;;;;;;;;;5.40;99.90;;;5.07;100.00;102721.53;4946856;29;20415;-77
2022/01/18 09:06:48;;;;;;;;;;;5.40;99.90;;;5.18;100.00;102714.09;4948442;28;19937;-77
2022/01/18 09:09:39;;;;;;;;;;;6.50;99.90;;;5.16;100.00;102713.16;4934362;29;19968;-77
2022/01/18 09:12:10;;;;;;;;;;;7.30;99.90;;;5.22;100.00;102716.88;4947357;28;19926;-75
2022/01/18 09:14:38;;;;;;;;;;;5.50;99.90;;;5.22;100.00;102714.25;4932104;29;19933;-77
2022/01/18 09:17:05;;;;;;;;;;;7.30;99.90;;;5.27;100.00;102717.03;4931561;29;19931;-77
2022/01/18 09:19:32;;;;;;;;;;;5.60;99.90;;;5.30;100.00;102717.16;4948767;28;20387;-77
2022/01/18 09:22:03;;;;;;;;;;;5.70;99.90;;;5.35;100.00;102718.19;4948867;28;19937;-77
2022/01/18 09:24:30;;;;;;;;;;;6.20;99.90;;;5.39;100.00;102714.88;4948623;28;19962;-77
2022/01/18 09:26:59;;;;;;;;;;;5.70;99.90;;;5.49;100.00;102721.31;4915619;29;19930;-77
2022/01/18 09:29:27;;;;;;;;;;;5.80;99.90;;;5.52;100.00;102715.28;4946407;29;19926;-78
2022/01/18 09:31:54;;;;;;;;;;;6.60;99.90;;;5.58;100.00;102728.56;4914575;29;20550;-77
2022/01/18 09:34:22;;;;;;;;;;;6.00;99.90;;;5.63;100.00;102723.50;4945933;29;19926;-77
2022/01/18 09:36:49;;;;;;;;;;;6.50;99.90;;;5.68;100.00;102727.16;4945852;29;20321;-78
2022/01/18 09:39:16;;;;;;;;;;;5.90;99.90;;;5.76;100.00;102728.28;4946108;29;19992;-77
2022/01/18 09:41:50;;;;;;;;;;;6.40;99.90;;;5.73;100.00;102722.97;4947099;28;19927;-76
2022/01/18 09:44:18;;;;;;;;;;;6.10;99.90;;;5.80;100.00;102737.13;4915080;29;20360;-76
2022/01/18 09:46:48;;;;;;;;;;;6.90;99.90;;;5.91;100.00;102737.47;4946486;29;20789;-76
2022/01/18 09:49:18;;;;;;;;;;;6.20;99.90;;;6.02;100.00;102730.06;4915332;28;19937;-76
2022/01/18 09:51:45;;;;;;;;;;;6.30;99.90;;;6.04;100.00;102731.00;4946358;29;20584;-76
2022/01/18 09:54:12;;;;;;;;;;;6.30;99.90;;;6.01;100.00;102739.63;4931117;29;19926;-76
2022/01/18 09:56:39;;;;;;;;;;;6.40;99.90;;;6.13;100.00;102733.88;4930840;29;19936;-77
2022/01/18 09:59:08;;;;;;;;;;;6.40;99.90;;;6.16;100.00;102739.22;4929944;28;19930;-76
2022/01/18 10:01:35;;;;;;;;;;;6.40;99.90;;;6.24;100.00;102739.47;4930117;29;20657;-77
2022/01/18 10:04:21;;;;;;;;;;;6.30;99.90;;;6.29;100.00;102739.63;4945575;29;20017;-76
2022/01/18 10:06:51;;;;;;;;;;;6.50;99.90;;;6.34;100.00;102727.59;4946183;29;20021;-76
2022/01/18 10:09:19;;;;;;;;;;;6.70;99.90;;;6.39;100.00;102719.03;4946879;28;19942;-76
2022/01/18 10:12:07;;;;;;;;;;;6.80;99.90;;;6.51;100.00;102728.09;4914420;29;20295;-76
2022/01/18 10:14:35;;;;;;;;;;;6.70;99.90;;;6.43;100.00;102725.25;4947483;29;19950;-76
2022/01/18 10:17:04;;;;;;;;;;;7.30;99.90;;;6.45;100.00;102723.56;4917577;29;19931;-76
2022/01/18 10:19:37;;;;;;;;;;;6.90;99.90;;;6.54;100.00;102730.81;4933554;29;19930;-76
2022/01/18 10:22:18;;;;;;;;;;;6.90;99.90;;;6.59;100.00;102730.94;4934139;29;19935;-76
2022/01/18 10:24:45;;;;;;;;;;;6.90;99.90;;;6.66;100.00;102725.94;4933873;29;19934;-76
2022/01/18 10:27:13;;;;;;;;;;;6.90;99.90;;;6.70;100.00;102721.72;4933740;29;19937;-76
2022/01/18 10:29:44;;;;;;;;;;;6.90;99.90;;;6.66;100.00;102718.09;4949441;28;19930;-76
2022/01/18 10:35:03;;;;;;;;;;;7.10;99.90;;;6.80;100.00;102718.53;4950397;29;19930;-75
2022/01/18 10:37:33;;;;;;;;;;;7.20;99.90;;;6.80;100.00;102709.78;4950694;29;20345;-76
2022/01/18 10:40:17;;;;;;;;;;;8.20;99.90;;;6.89;100.00;102711.78;4948800;28;19945;-76
2022/01/18 10:42:49;;;;;;;;;;;7.10;99.90;;;6.98;100.00;102709.44;4934191;29;19934;-77
2022/01/18 10:45:34;;;;;;;;;;;7.30;99.90;;;7.07;100.00;102708.81;4948731;29;19938;-77
2022/01/18 10:48:04;;;;;;;;;;;7.40;99.90;;;7.15;100.00;102703.78;4932554;29;19930;-77
2022/01/18 10:50:36;;;;;;;;;;;7.40;99.90;;;7.17;100.00;102696.84;4950964;28;19931;-78
2022/01/18 10:53:14;;;;;;;;;;;7.80;99.90;;;7.26;100.00;102694.50;4949557;29;19933;-76
2022/01/18 10:55:42;;;;;;;;;;;7.60;99.90;;;7.17;100.00;102694.25;4948756;29;20491;-75
2022/01/18 10:58:14;;;;;;;;;;;8.10;99.90;;;7.08;100.00;102690.50;4948988;28;19930;-76
2022/01/18 11:00:42;;;;;;;;;;;7.80;99.90;;;7.08;100.00;102687.88;4948852;28;19926;-77
2022/01/18 11:03:12;;;;;;;;;;;8.30;99.90;;;7.13;100.00;102680.16;4930893;29;19934;-76
2022/01/18 11:05:41;;;;;;;;;;;7.60;99.90;;;7.17;100.00;102681.16;4947571;29;19931;-74
2022/01/18 11:08:08;;;;;;;;;;;7.80;99.90;;;7.23;100.00;102679.59;4947192;29;20395;-75
2022/01/18 11:10:45;;;;;;;;;;;7.80;99.90;;;7.38;100.00;102673.00;4931790;29;19930;-77
2022/01/18 11:13:34;;;;;;;;;;;7.80;99.90;;;7.52;100.00;102671.63;4947139;29;19938;-77
2022/01/18 11:16:05;;;;;;;;;;;7.80;99.90;;;7.57;100.00;102670.84;4932498;28;19933;-78
2022/01/18 11:18:36;;;;;;;;;;;7.80;99.90;;;7.62;100.00;102670.13;4948805;28;19938;-78
2022/01/18 11:21:06;;;;;;;;;;;7.90;99.90;;;7.67;100.00;102662.38;4947377;28;19931;-77
2022/01/18 11:23:34;;;;;;;;;;;8.00;99.90;;;7.78;100.00;102668.75;4931268;29;20012;-78
2022/01/18 11:26:01;;;;;;;;;;;8.00;99.90;;;7.78;100.00;102663.50;4946700;28;20350;-78
2022/01/18 11:28:34;;;;;;;;;;;8.10;99.90;;;7.77;100.00;102650.38;4946963;29;20008;-78
2022/01/18 11:31:10;;;;;;;;;;;8.10;99.90;;;7.86;100.00;102676.78;4947307;28;19927;-77
2022/01/18 11:33:47;;;;;;;;;;;8.20;99.90;;;7.91;100.00;102653.31;4932449;28;20387;-78
2022/01/18 11:36:15;;;;;;;;;;;8.10;99.90;;;8.03;100.00;102655.34;4932184;29;19930;-78
2022/01/18 11:38:48;;;;;;;;;;;8.50;99.90;;;8.03;100.00;102650.09;4946965;29;19938;-78
2022/01/18 11:41:30;;;;;;;;;;;8.30;99.90;;;8.16;100.00;102649.53;4947949;28;19934;-78
2022/01/18 11:43:59;;;;;;;;;;;8.40;99.90;;;8.16;100.00;102648.66;4947694;28;19931;-78
2022/01/18 11:46:37;;;;;;;;;;;8.40;99.90;;;8.26;100.00;102641.88;4946628;29;19931;-78
2022/01/18 11:49:10;;;;;;;;;;;8.50;99.90;;;8.35;100.00;102636.81;4930695;29;20632;-78
2022/01/18 11:51:48;;;;;;;;;;;9.50;99.90;;;8.32;100.00;102634.13;4961727;28;19957;-77
2022/01/18 11:54:55;;;;;;;;;;;8.60;99.90;;;8.43;100.00;102636.97;4961484;28;19930;-77
2022/01/18 11:57:29;;;;;;;;;;;8.70;99.90;;;8.36;100.00;102638.63;4947460;28;19980;-78
2022/01/18 12:00:17;;;;;;;;;;;9.10;99.90;;;8.42;100.00;102646.59;4947708;28;20021;-76
2022/01/18 12:02:46;;;;;;;;;;;9.30;99.90;;;8.49;100.00;102635.38;4946504;28;19937;-77
2022/01/18 12:05:20;;;;;;;;;;;9.80;99.90;;;8.54;100.00;102632.03;4946688;28;20541;-78
2022/01/18 12:07:50;;;;;;;;;;;6.90;99.90;;;8.63;100.00;102625.22;4931390;29;20556;-77
2022/01/18 12:10:30;;;;;;;;;;;8.80;99.90;;;8.70;100.00;102615.72;4930952;28;20452;-77
2022/01/18 12:13:28;;;;;;;;;;;8.90;99.90;;;8.77;100.00;102622.00;4929975;28;19935;-76
2022/01/18 12:15:58;;;;;;;;;;;9.00;99.90;;;8.86;100.00;102621.28;4925459;29;19931;-77
2022/01/18 12:18:27;;;;;;;;;;;9.00;99.90;;;8.85;100.00;102623.00;4927285;29;19931;-77
2022/01/18 12:21:15;;;;;;;;;;;9.10;99.90;;;8.84;100.00;102617.75;4927141;29;19982;-77
2022/01/18 12:23:43;;;;;;;;;;;9.20;99.90;;;8.87;100.00;102617.81;4927394;29;20578;-78
2022/01/18 12:26:34;;;;;;;;;;;9.20;99.90;;;8.92;100.00;102622.28;4927048;29;19931;-77
2022/01/18 12:29:22;;;;;;;;;;;9.20;99.90;;;8.98;100.00;102612.75;4928152;29;19931;-78
2022/01/18 12:34:31;;;;;;;;;;;9.30;99.90;;;9.09;100.00;102608.59;4926566;29;20422;-77
2022/01/18 12:37:27;;;;;;;;;;;9.30;99.90;;;9.15;100.00;102598.19;4926930;29;20045;-78
2022/01/18 12:44:59;;;;;;;;;;;9.40;99.90;;;8.95;100.00;102595.19;4940219;28;20024;-77
2022/01/18 12:47:26;;;;;;;;;;;9.50;99.90;;;9.06;100.00;102592.78;4945658;29;19966;-77
2022/01/18 12:49:53;;;;;;;;;;;9.40;99.90;;;9.11;100.00;102590.22;4929901;29;20292;-78